createdAt,value
2018-01-21T00:02:00.398Z,16.70
2018-01-21T00:04:27.952Z,14.70
2018-01-21T00:06:56.219Z,13.67
2018-01-21T00:09:24.516Z,13.93
2018-01-21T00:11:52.781Z,10.80
2018-01-21T00:14:20.327Z,12.07
2018-01-21T00:16:47.817Z,9.47
2018-01-21T00:19:15.343Z,8.27
2018-01-21T00:21:42.873Z,9.63
2018-01-21T00:24:10.403Z,10.00
2018-01-21T00:26:37.927Z,12.70
2018-01-21T00:29:06.175Z,8.30
2018-01-21T00:31:33.668Z,8.00
2018-01-21T00:34:01.980Z,8.73
2018-01-21T00:36:29.495Z,8.07
2018-01-21T00:38:57.744Z,8.47
2018-01-21T00:41:25.307Z,8.50
2018-01-21T00:43:52.804Z,8.57
2018-01-21T00:46:20.344Z,8.27
2018-01-21T00:48:48.635Z,7.53
2018-01-21T00:51:16.308Z,7.87
2018-01-21T00:53:43.795Z,5.10
2018-01-21T00:56:11.381Z,5.80
2018-01-21T00:58:38.847Z,5.50
2018-01-21T01:01:07.096Z,5.60
2018-01-21T01:03:34.700Z,4.87
2018-01-21T01:06:02.220Z,5.40
2018-01-21T01:08:30.047Z,4.73
2018-01-21T01:10:57.556Z,5.60
2018-01-21T01:13:25.087Z,5.97
2018-01-21T01:15:52.607Z,5.30
2018-01-21T01:18:20.113Z,6.20
2018-01-21T01:20:47.648Z,4.83
2018-01-21T01:23:15.163Z,5.07
2018-01-21T01:25:42.683Z,4.40
2018-01-21T01:28:10.918Z,5.77
2018-01-21T01:30:38.440Z,4.70
2018-01-21T01:33:06.735Z,5.07
2018-01-21T01:35:34.267Z,5.07
2018-01-21T01:38:02.581Z,5.87
2018-01-21T01:40:30.103Z,5.97
2018-01-21T01:42:58.408Z,4.70
2018-01-21T01:45:25.929Z,5.90
2018-01-21T01:47:53.467Z,5.27
2018-01-21T01:50:20.988Z,5.47
2018-01-21T01:52:48.544Z,5.80
2018-01-21T01:55:16.027Z,6.60
2018-01-21T01:57:43.547Z,6.47
2018-01-21T02:00:11.107Z,6.47
2018-01-21T02:02:39.560Z,7.00
2018-01-21T02:05:07.100Z,6.70
2018-01-21T02:07:34.639Z,6.70
2018-01-21T02:10:02.172Z,6.87
2018-01-21T02:12:29.674Z,7.40
2018-01-21T02:14:57.215Z,6.10
2018-01-21T02:17:24.683Z,6.93
2018-01-21T02:19:52.162Z,6.30
2018-01-21T02:22:20.434Z,6.80
2018-01-21T02:24:47.970Z,7.40
2018-01-21T02:27:15.467Z,5.80
2018-01-21T02:29:43.755Z,6.23
2018-01-21T02:32:11.274Z,6.00
2018-01-21T02:34:38.817Z,6.90
2018-01-21T02:37:06.360Z,7.30
2018-01-21T02:39:33.907Z,6.90
2018-01-21T02:42:01.423Z,6.43
2018-01-21T02:44:28.955Z,6.50
2018-01-21T02:46:56.489Z,6.20
2018-01-21T02:49:24.020Z,6.53
2018-01-21T02:51:51.468Z,7.50
2018-01-21T02:54:19.017Z,6.00
2018-01-21T02:56:47.316Z,7.03
2018-01-21T02:59:14.844Z,6.17
2018-01-21T03:01:42.409Z,7.20
2018-01-21T03:04:09.888Z,6.43
2018-01-21T03:06:37.531Z,6.63
2018-01-21T03:09:05.839Z,7.00
2018-01-21T03:11:34.015Z,6.50
2018-01-21T03:14:01.542Z,6.33
2018-01-21T03:16:29.061Z,6.80
2018-01-21T03:18:56.599Z,6.10
2018-01-21T03:21:24.125Z,6.10
2018-01-21T03:23:51.660Z,6.10
2018-01-21T03:26:19.907Z,5.00
2018-01-21T03:28:47.427Z,5.40
2018-01-21T03:31:14.971Z,4.87
2018-01-21T03:33:43.297Z,6.80
2018-01-21T03:36:10.841Z,4.30
2018-01-21T03:38:38.367Z,4.80
2018-01-21T03:41:05.888Z,5.33
2018-01-21T03:43:33.431Z,4.20
2018-01-21T03:46:00.985Z,4.70
2018-01-21T03:48:29.107Z,4.80
2018-01-21T03:50:57.426Z,5.47
2018-01-21T03:53:24.942Z,5.60
2018-01-21T03:55:53.288Z,6.60
2018-01-21T03:58:20.743Z,5.80
2018-01-21T04:00:48.308Z,5.57
2018-01-21T04:03:15.847Z,5.70
2018-01-21T04:05:43.374Z,5.30
2018-01-21T04:08:10.895Z,5.33
2018-01-21T04:10:39.165Z,5.87
2018-01-21T04:13:06.688Z,4.73
2018-01-21T04:15:34.199Z,4.77
2018-01-21T04:18:02.490Z,5.20
2018-01-21T04:20:29.988Z,5.03
2018-01-21T04:22:57.476Z,5.73
2018-01-21T04:25:25.028Z,5.60
2018-01-21T04:27:52.531Z,5.50
2018-01-21T04:30:20.081Z,4.70
2018-01-21T04:32:47.615Z,4.47
2018-01-21T04:35:15.220Z,5.20
2018-01-21T04:37:43.520Z,5.03
2018-01-21T04:40:11.032Z,4.80
2018-01-21T04:42:38.560Z,4.90
2018-01-21T04:45:06.842Z,4.50
2018-01-21T04:47:34.380Z,5.47
2018-01-21T04:50:01.931Z,4.70
2018-01-21T04:52:29.472Z,5.57
2018-01-21T04:54:56.964Z,4.73
2018-01-21T04:57:24.443Z,6.03
2018-01-21T04:59:51.972Z,4.70
2018-01-21T05:02:19.511Z,5.20
2018-01-21T05:04:47.035Z,5.40
2018-01-21T05:07:14.854Z,5.53
2018-01-21T05:09:42.389Z,6.10
2018-01-21T05:12:10.083Z,5.57
2018-01-21T05:14:37.559Z,5.73
2018-01-21T05:17:05.079Z,7.17
2018-01-21T05:19:32.784Z,7.07
2018-01-21T05:22:00.355Z,6.10
2018-01-21T05:24:27.867Z,6.70
2018-01-21T05:26:55.395Z,6.57
2018-01-21T05:29:22.908Z,6.13
2018-01-21T05:31:51.189Z,6.60
2018-01-21T05:34:18.728Z,6.00
2018-01-21T05:36:46.228Z,5.77
2018-01-21T05:39:13.711Z,6.20
2018-01-21T05:41:41.256Z,6.20
2018-01-21T05:44:08.880Z,6.27
2018-01-21T05:46:36.420Z,6.53
2018-01-21T05:49:03.986Z,5.80
2018-01-21T05:51:31.527Z,5.43
2018-01-21T05:53:59.809Z,7.63
2018-01-21T05:56:28.101Z,6.63
2018-01-21T05:58:56.396Z,6.20
2018-01-21T06:01:23.923Z,7.70
2018-01-21T06:03:52.922Z,8.80
2018-01-21T06:06:21.242Z,8.43
2018-01-21T06:08:48.763Z,7.27
2018-01-21T06:11:16.308Z,6.30
2018-01-21T06:13:44.559Z,6.37
2018-01-21T06:16:12.091Z,5.70
2018-01-21T06:18:39.576Z,5.80
2018-01-21T06:21:07.099Z,6.50
2018-01-21T06:23:34.627Z,6.50
2018-01-21T06:26:02.154Z,7.07
2018-01-21T06:28:29.647Z,6.70
2018-01-21T06:30:57.179Z,7.90
2018-01-21T06:33:24.729Z,6.70
2018-01-21T06:35:52.273Z,7.23
2018-01-21T06:38:20.717Z,7.10
2018-01-21T06:40:48.232Z,6.60
2018-01-21T06:43:15.821Z,7.20
2018-01-21T06:45:43.339Z,5.50
2018-01-21T06:48:10.875Z,6.87
2018-01-21T06:50:38.412Z,6.93
2018-01-21T06:53:05.916Z,7.50
2018-01-21T06:55:34.203Z,6.57
2018-01-21T06:58:01.749Z,8.63
2018-01-21T07:00:30.036Z,8.60
2018-01-21T07:02:57.562Z,7.27
2018-01-21T07:05:25.109Z,7.67
2018-01-21T07:07:52.639Z,6.90
2018-01-21T07:10:20.157Z,5.80
2018-01-21T07:12:47.821Z,5.97
2018-01-21T07:15:16.170Z,5.63
2018-01-21T07:17:43.711Z,5.50
2018-01-21T07:20:11.251Z,7.33
2018-01-21T07:22:38.809Z,5.30
2018-01-21T07:25:06.328Z,5.00
2018-01-21T07:27:33.871Z,5.17
2018-01-21T07:30:01.385Z,4.97
2018-01-21T07:32:28.915Z,5.23
2018-01-21T07:34:56.443Z,6.93
2018-01-21T07:37:23.987Z,5.70
2018-01-21T07:39:51.510Z,6.83
2018-01-21T07:42:19.014Z,5.93
2018-01-21T07:44:46.531Z,7.07
2018-01-21T07:47:14.059Z,5.23
2018-01-21T07:49:42.360Z,8.20
2018-01-21T07:52:09.972Z,7.00
2018-01-21T07:54:38.376Z,6.63
2018-01-21T07:57:05.860Z,6.60
2018-01-21T07:59:33.404Z,6.10
2018-01-21T08:02:00.935Z,8.27
2018-01-21T08:04:28.412Z,6.20
2018-01-21T08:07:02.432Z,6.20
2018-01-21T08:09:30.720Z,6.00
2018-01-21T08:11:58.248Z,6.20
2018-01-21T08:14:25.831Z,7.43
2018-01-21T08:16:54.131Z,5.90
2018-01-21T08:19:22.447Z,7.07
2018-01-21T08:21:49.932Z,6.10
2018-01-21T08:24:18.217Z,6.40
2018-01-21T08:26:45.748Z,6.53
2018-01-21T08:29:13.306Z,7.00
2018-01-21T08:31:40.853Z,6.87
2018-01-21T08:34:13.968Z,9.37
2018-01-21T08:36:47.987Z,6.60
2018-01-21T08:39:21.228Z,15.53
2018-01-21T08:41:48.767Z,8.73
2018-01-21T08:44:16.328Z,7.10
2018-01-21T08:46:43.872Z,8.83
2018-01-21T08:49:11.376Z,8.50
2018-01-21T08:51:38.882Z,8.33
2018-01-21T08:54:06.419Z,8.87
2018-01-21T08:56:33.898Z,8.63
2018-01-21T08:59:01.436Z,7.33
2018-01-21T09:01:29.691Z,6.10
2018-01-21T09:03:57.175Z,9.07
2018-01-21T09:06:25.468Z,7.03
2018-01-21T09:08:52.999Z,8.30
2018-01-21T09:11:20.545Z,7.00
2018-01-21T09:13:48.053Z,6.60
2018-01-21T09:16:15.610Z,8.23
2018-01-21T09:18:43.137Z,6.83
2018-01-21T09:21:10.711Z,8.90
2018-01-21T09:23:38.264Z,7.43
2018-01-21T09:26:05.879Z,7.20
2018-01-21T09:28:33.367Z,9.80
2018-01-21T09:31:01.693Z,7.40
2018-01-21T09:33:29.211Z,6.67
2018-01-21T09:35:56.736Z,10.57
2018-01-21T09:38:24.268Z,10.93
2018-01-21T09:40:51.799Z,12.93
2018-01-21T09:43:19.303Z,8.47
2018-01-21T09:45:46.872Z,7.23
2018-01-21T09:48:15.209Z,6.27
2018-01-21T09:50:42.736Z,7.20
2018-01-21T09:53:10.268Z,7.80
2018-01-21T09:55:37.789Z,8.90
2018-01-21T09:58:05.271Z,7.17
2018-01-21T10:00:32.791Z,15.60
2018-01-21T10:03:00.347Z,8.13
2018-01-21T10:05:27.874Z,8.70
2018-01-21T10:07:56.154Z,5.40
2018-01-21T10:10:24.464Z,3.83
2018-01-21T10:12:51.953Z,6.07
2018-01-21T10:15:19.458Z,4.20
2018-01-21T10:17:46.996Z,5.83
2018-01-21T10:20:15.269Z,4.60
2018-01-21T10:22:43.583Z,5.73
2018-01-21T10:25:11.110Z,5.33
2018-01-21T10:27:38.662Z,6.70
2018-01-21T10:30:06.911Z,8.13
2018-01-21T10:32:34.384Z,7.07
2018-01-21T10:35:02.652Z,6.10
2018-01-21T10:37:30.154Z,6.07
2018-01-21T10:39:57.684Z,6.30
2018-01-21T10:42:26.103Z,4.40
2018-01-21T10:44:53.574Z,5.03
2018-01-21T10:47:21.077Z,6.80
2018-01-21T10:49:48.479Z,5.60
2018-01-21T10:52:15.978Z,5.53
2018-01-21T10:54:43.379Z,6.27
2018-01-21T10:57:11.043Z,9.53
2018-01-21T10:59:38.500Z,6.33
2018-01-21T11:02:05.955Z,5.23
2018-01-21T11:04:33.479Z,6.63
2018-01-21T11:07:01.707Z,6.70
2018-01-21T11:09:31.166Z,6.23
2018-01-21T11:11:59.654Z,5.80
2018-01-21T11:14:27.200Z,6.70
2018-01-21T11:16:55.472Z,8.00
2018-01-21T11:19:22.980Z,6.67
2018-01-21T11:21:50.481Z,9.13
2018-01-21T11:24:18.815Z,5.40
2018-01-21T11:26:46.727Z,9.73
2018-01-21T11:29:15.013Z,6.40
2018-01-21T11:31:42.543Z,7.07
2018-01-21T11:34:10.085Z,6.43
2018-01-21T11:36:37.567Z,6.33
2018-01-21T11:39:06.574Z,5.57
2018-01-21T11:41:34.038Z,5.30
2018-01-21T11:44:01.823Z,5.33
2018-01-21T11:46:29.315Z,7.43
2018-01-21T11:48:57.019Z,5.93
2018-01-21T11:51:24.556Z,5.90
2018-01-21T11:53:52.121Z,5.53
2018-01-21T11:56:20.436Z,8.37
2018-01-21T11:58:48.025Z,10.00
2018-01-21T12:01:15.581Z,6.73
2018-01-21T12:03:43.119Z,9.40
2018-01-21T12:06:10.691Z,9.83
2018-01-21T12:08:38.252Z,5.90
2018-01-21T12:11:05.789Z,7.50
2018-01-21T12:13:33.365Z,7.00
2018-01-21T12:16:00.870Z,8.17
2018-01-21T12:18:28.380Z,11.77
2018-01-21T12:20:55.848Z,7.93
2018-01-21T12:23:23.409Z,10.60
2018-01-21T12:25:50.955Z,12.20
2018-01-21T12:28:18.552Z,5.77
2018-01-21T12:30:46.117Z,6.10
2018-01-21T12:33:16.555Z,11.30
2018-01-21T12:35:44.104Z,5.77
2018-01-21T12:38:12.427Z,6.00
2018-01-21T12:40:39.930Z,9.13
2018-01-21T12:43:08.256Z,8.00
2018-01-21T12:45:35.832Z,8.53
2018-01-21T12:48:03.338Z,7.57
2018-01-21T12:50:30.937Z,7.77
2018-01-21T12:52:58.488Z,6.63
2018-01-21T12:55:26.022Z,6.30
2018-01-21T12:57:53.491Z,5.90
2018-01-21T13:00:21.064Z,9.10
2018-01-21T13:02:48.641Z,5.03
2018-01-21T13:05:16.343Z,8.00
2018-01-21T13:07:43.914Z,9.50
2018-01-21T13:10:11.404Z,8.27
2018-01-21T13:12:38.868Z,10.23
2018-01-21T13:15:06.508Z,8.30
2018-01-21T13:17:34.290Z,6.40
2018-01-21T13:20:01.832Z,9.10
2018-01-21T13:22:29.345Z,9.33
2018-01-21T13:24:57.704Z,5.80
2018-01-21T13:27:25.210Z,5.50
2018-01-21T13:29:53.048Z,5.30
2018-01-21T13:32:20.564Z,3.90
2018-01-21T13:34:51.207Z,8.03
2018-01-21T13:37:18.786Z,7.10
2018-01-21T13:39:47.122Z,7.80
2018-01-21T13:42:14.795Z,6.03
2018-01-21T13:44:43.154Z,5.00
2018-01-21T13:47:10.744Z,4.90
2018-01-21T13:49:38.389Z,5.67
2018-01-21T13:52:05.968Z,4.20
2018-01-21T13:54:33.654Z,4.93
2018-01-21T13:57:01.185Z,5.47
2018-01-21T13:59:28.850Z,8.10
2018-01-21T14:01:56.477Z,9.33
2018-01-21T14:04:23.999Z,8.20
2018-01-21T14:06:51.495Z,6.23
2018-01-21T14:09:19.463Z,6.87
2018-01-21T14:11:47.036Z,4.83
2018-01-21T14:14:15.041Z,6.00
2018-01-21T14:16:42.636Z,7.20
2018-01-21T14:19:10.210Z,5.23
2018-01-21T14:21:38.571Z,7.87
2018-01-21T14:24:06.075Z,11.90
2018-01-21T14:26:34.417Z,5.40
2018-01-21T14:29:02.114Z,7.90
2018-01-21T14:31:29.688Z,6.83
2018-01-21T14:33:58.550Z,5.30
2018-01-21T14:36:26.139Z,5.93
2018-01-21T14:38:53.769Z,9.23
2018-01-21T14:41:21.273Z,7.13
2018-01-21T14:43:48.732Z,7.30
2018-01-21T14:46:16.259Z,7.37
2018-01-21T14:48:44.588Z,5.93
2018-01-21T14:51:12.509Z,6.43
2018-01-21T14:53:41.045Z,4.63
2018-01-21T14:56:08.698Z,5.87
2018-01-21T14:58:36.298Z,6.80
2018-01-21T15:01:03.993Z,3.33
2018-01-21T15:03:31.907Z,4.60
2018-01-21T15:05:59.452Z,3.70
2018-01-21T15:08:26.915Z,4.93
2018-01-21T15:10:54.436Z,11.30
2018-01-21T15:13:21.976Z,3.70
2018-01-21T15:15:50.273Z,4.40
2018-01-21T15:18:17.779Z,4.40
2018-01-21T15:20:45.320Z,7.00
2018-01-21T15:23:12.790Z,5.53
2018-01-21T15:25:40.300Z,6.57
2018-01-21T15:28:08.248Z,5.83
2018-01-21T15:30:36.560Z,7.90
2018-01-21T15:33:04.066Z,5.10
2018-01-21T15:35:31.532Z,8.53
2018-01-21T15:38:00.544Z,9.93
2018-01-21T15:40:27.990Z,9.77
2018-01-21T15:42:55.524Z,6.40
2018-01-21T15:45:23.078Z,7.20
2018-01-21T15:47:50.553Z,7.60
2018-01-21T15:50:18.906Z,6.93
2018-01-21T15:52:46.362Z,9.10
2018-01-21T15:55:13.867Z,6.47
2018-01-21T15:57:41.370Z,7.73
2018-01-21T16:00:08.897Z,8.63
2018-01-21T16:02:36.473Z,8.10
2018-01-21T16:05:03.963Z,5.53
2018-01-21T16:07:31.425Z,8.37
2018-01-21T16:09:58.910Z,8.87
2018-01-21T16:12:26.515Z,7.83
2018-01-21T16:14:54.013Z,9.07
2018-01-21T16:17:22.320Z,14.70
2018-01-21T16:19:49.787Z,13.67
2018-01-21T16:22:17.314Z,11.57
2018-01-21T16:24:44.811Z,12.03
2018-01-21T16:27:12.331Z,10.17
2018-01-21T16:29:40.571Z,9.07
2018-01-21T16:32:08.048Z,10.70
2018-01-21T16:34:35.519Z,6.60
2018-01-21T16:37:02.998Z,13.97
2018-01-21T16:39:30.516Z,13.80
2018-01-21T16:41:58.794Z,16.17
2018-01-21T16:44:26.341Z,11.67
2018-01-21T16:46:53.779Z,10.90
2018-01-21T16:49:21.379Z,9.27
2018-01-21T16:51:48.951Z,13.97
2018-01-21T16:54:16.477Z,12.77
2018-01-21T16:56:44.767Z,14.10
2018-01-21T16:59:12.268Z,11.90
2018-01-21T17:01:39.786Z,15.93
2018-01-21T17:04:07.353Z,22.37
2018-01-21T17:06:35.502Z,23.03
2018-01-21T17:09:03.255Z,20.87
2018-01-21T17:11:30.958Z,16.13
2018-01-21T17:13:58.516Z,17.43
2018-01-21T17:16:29.098Z,17.30
2018-01-21T17:18:56.684Z,14.83
2018-01-21T17:21:25.012Z,15.03
2018-01-21T17:23:52.573Z,16.60
2018-01-21T17:26:20.122Z,13.93
2018-01-21T17:28:47.638Z,21.10
2018-01-21T17:31:15.905Z,14.27
2018-01-21T17:33:44.135Z,15.47
2018-01-21T17:36:11.591Z,19.60
2018-01-21T17:38:39.063Z,16.97
2018-01-21T17:41:06.573Z,12.30
2018-01-21T17:43:34.026Z,17.63
2018-01-21T17:46:01.830Z,28.27
2018-01-21T17:48:29.280Z,18.47
2018-01-21T17:50:56.752Z,14.70
2018-01-21T17:53:24.202Z,22.30
2018-01-21T17:55:51.742Z,17.20
2018-01-21T17:58:19.251Z,16.87
2018-01-21T18:00:46.774Z,16.00
2018-01-21T18:03:14.283Z,13.73
2018-01-21T18:05:41.743Z,13.73
2018-01-21T18:08:09.203Z,17.87
2018-01-21T18:10:37.787Z,19.50
2018-01-21T18:13:05.375Z,13.13
2018-01-21T18:15:32.864Z,13.13
2018-01-21T18:18:00.423Z,16.20
2018-01-21T18:20:27.968Z,18.70
2018-01-21T18:22:55.457Z,14.37
2018-01-21T18:25:23.716Z,14.00
2018-01-21T18:27:51.299Z,11.80
2018-01-21T18:30:19.557Z,16.07
2018-01-21T18:32:47.115Z,12.43
2018-01-21T18:35:15.392Z,12.00
2018-01-21T18:37:42.907Z,24.40
2018-01-21T18:40:10.387Z,16.57
2018-01-21T18:42:37.887Z,15.60
2018-01-21T18:45:05.946Z,14.07
2018-01-21T18:47:34.293Z,20.77
2018-01-21T18:50:01.848Z,27.43
2018-01-21T18:52:29.454Z,41.97
2018-01-21T18:54:57.004Z,37.70
2018-01-21T18:57:24.609Z,30.03
2018-01-21T18:59:52.148Z,25.87
2018-01-21T19:02:19.659Z,20.83
2018-01-21T19:04:47.206Z,16.20
2018-01-21T19:07:14.883Z,20.73
2018-01-21T19:09:42.473Z,17.20
2018-01-21T19:12:09.991Z,18.10
2018-01-21T19:14:37.577Z,14.33
2018-01-21T19:17:05.119Z,14.50
2018-01-21T19:19:32.700Z,16.20
2018-01-21T19:22:01.211Z,17.97
2018-01-21T19:24:28.703Z,23.40
2018-01-21T19:26:56.220Z,21.37
2018-01-21T19:29:23.779Z,19.47
2018-01-21T19:31:51.335Z,21.43
2018-01-21T19:34:18.919Z,18.20
2018-01-21T19:36:46.518Z,21.37
2018-01-21T19:39:29.762Z,26.83
2018-01-21T19:42:07.325Z,25.03
2018-01-21T19:44:37.342Z,14.93
2018-01-21T19:47:06.557Z,16.90
2018-01-21T19:49:34.192Z,12.57
2018-01-21T19:52:01.758Z,11.30
2018-01-21T19:54:29.357Z,19.47
2018-01-21T19:56:56.859Z,14.63
2018-01-21T19:59:24.369Z,19.50
2018-01-21T20:01:51.954Z,22.53
2018-01-21T20:04:19.530Z,23.37
2018-01-21T20:06:47.106Z,18.87
2018-01-21T20:09:14.677Z,19.07
2018-01-21T20:11:43.038Z,20.03
2018-01-21T20:14:10.624Z,21.70
2018-01-21T20:16:38.195Z,17.40
2018-01-21T20:19:05.878Z,18.53
2018-01-21T20:21:33.453Z,18.90
2018-01-21T20:24:01.002Z,18.90
2018-01-21T20:26:28.670Z,19.17
2018-01-21T20:28:56.225Z,21.13
2018-01-21T20:31:23.829Z,21.90
2018-01-21T20:33:52.129Z,21.40
2018-01-21T20:36:19.631Z,21.93
2018-01-21T20:38:47.234Z,21.60
2018-01-21T20:41:15.547Z,23.60
2018-01-21T20:43:43.171Z,18.53
2018-01-21T20:46:11.547Z,19.83
2018-01-21T20:48:39.925Z,17.43
2018-01-21T20:51:13.222Z,17.87
2018-01-21T20:53:46.617Z,18.73
2018-01-21T20:56:18.802Z,19.57
2018-01-21T20:58:46.341Z,22.00
2018-01-21T21:01:13.870Z,24.43
2018-01-21T21:03:41.396Z,19.23
2018-01-21T21:06:09.022Z,23.53
2018-01-21T21:08:36.628Z,20.17
2018-01-21T21:11:04.215Z,19.43
2018-01-21T21:13:32.519Z,20.60
2018-01-21T21:16:00.044Z,18.03
2018-01-21T21:18:27.655Z,16.07
2018-01-21T21:20:55.363Z,25.70
2018-01-21T21:23:23.699Z,18.97
2018-01-21T21:25:51.259Z,17.00
2018-01-21T21:28:18.796Z,17.00
2018-01-21T21:30:46.338Z,17.07
2018-01-21T21:33:14.712Z,16.83
2018-01-21T21:35:42.310Z,16.47
2018-01-21T21:38:09.888Z,15.10
2018-01-21T21:40:37.468Z,16.23
2018-01-21T21:43:05.043Z,15.67
2018-01-21T21:45:33.401Z,15.57
2018-01-21T21:48:00.957Z,14.67
2018-01-21T21:50:28.489Z,17.20
2018-01-21T21:52:56.035Z,13.33
2018-01-21T21:55:24.183Z,20.30
2018-01-21T21:57:51.752Z,15.57
2018-01-21T22:00:19.371Z,15.93
2018-01-21T22:02:46.896Z,17.07
2018-01-21T22:05:14.366Z,16.20
2018-01-21T22:07:41.876Z,17.77
2018-01-21T22:10:09.466Z,16.33
2018-01-21T22:12:37.048Z,13.83
2018-01-21T22:15:04.651Z,16.83
2018-01-21T22:17:32.287Z,17.33
2018-01-21T22:19:59.841Z,15.00
2018-01-21T22:22:27.422Z,15.43
2018-01-21T22:24:55.724Z,13.33
2018-01-21T22:27:23.332Z,15.90
2018-01-21T22:29:50.803Z,15.20
2018-01-21T22:32:19.057Z,12.10
2018-01-21T22:34:47.379Z,13.43
2018-01-21T22:37:14.897Z,15.27
2018-01-21T22:39:42.477Z,11.83
2018-01-21T22:42:11.263Z,11.17
2018-01-21T22:44:38.832Z,13.67
2018-01-21T22:47:06.379Z,13.73
2018-01-21T22:49:34.657Z,15.73
2018-01-21T22:52:03.501Z,12.27
2018-01-21T22:54:31.061Z,13.43
2018-01-21T22:56:58.597Z,11.80
2018-01-21T22:59:26.091Z,11.40
2018-01-21T23:01:53.607Z,10.40
2018-01-21T23:04:21.125Z,12.37
2018-01-21T23:06:49.443Z,10.97
2018-01-21T23:09:16.971Z,10.90
2018-01-21T23:11:44.463Z,10.50
2018-01-21T23:14:11.935Z,8.73
2018-01-21T23:16:39.408Z,12.10
2018-01-21T23:19:06.868Z,9.23
2018-01-21T23:21:34.423Z,11.97
2018-01-21T23:24:01.915Z,13.03
2018-01-21T23:26:29.416Z,11.40
2018-01-21T23:28:56.956Z,13.27
2018-01-21T23:31:25.795Z,13.77
2018-01-21T23:33:53.274Z,11.57
2018-01-21T23:36:21.540Z,12.30
2018-01-21T23:38:50.104Z,11.23
2018-01-21T23:41:17.644Z,14.07
2018-01-21T23:43:45.134Z,10.80
2018-01-21T23:46:13.452Z,12.77
2018-01-21T23:48:40.988Z,10.60
2018-01-21T23:51:08.448Z,7.93
2018-01-21T23:53:35.994Z,7.27
2018-01-21T23:56:04.280Z,9.50
2018-01-21T23:58:31.824Z,10.77
